createdAt,value
2017-12-13T00:02:06.212Z,17.37
2017-12-13T00:04:32.948Z,23.67
2017-12-13T00:07:00.491Z,16.87
2017-12-13T00:09:28.018Z,20.57
2017-12-13T00:11:54.802Z,17.17
2017-12-13T00:14:22.307Z,19.70
2017-12-13T00:16:49.056Z,18.53
2017-12-13T00:19:15.787Z,15.67
2017-12-13T00:21:42.528Z,13.53
2017-12-13T00:24:09.293Z,20.77
2017-12-13T00:26:36.784Z,14.23
2017-12-13T00:29:03.519Z,18.73
2017-12-13T00:31:30.262Z,20.47
2017-12-13T00:33:57.086Z,19.27
2017-12-13T00:36:24.666Z,19.80
2017-12-13T00:38:51.415Z,15.97
2017-12-13T00:41:18.176Z,15.47
2017-12-13T00:43:44.925Z,18.13
2017-12-13T00:46:11.675Z,16.17
2017-12-13T00:48:38.438Z,17.60
2017-12-13T00:51:05.163Z,18.10
2017-12-13T00:53:31.924Z,17.63
2017-12-13T00:55:58.651Z,17.53
2017-12-13T00:58:26.147Z,15.73
2017-12-13T01:00:52.930Z,19.07
2017-12-13T01:03:19.626Z,18.63
2017-12-13T01:05:46.370Z,17.67
2017-12-13T01:08:13.184Z,19.47
2017-12-13T01:10:39.908Z,20.00
2017-12-13T01:13:07.406Z,20.80
2017-12-13T01:15:34.157Z,20.27
2017-12-13T01:18:01.057Z,17.70
2017-12-13T01:20:28.586Z,24.83
2017-12-13T01:22:55.326Z,18.63
2017-12-13T01:25:22.062Z,16.87
2017-12-13T01:27:48.811Z,14.27
2017-12-13T01:30:16.309Z,17.47
2017-12-13T01:32:43.066Z,24.07
2017-12-13T01:35:09.792Z,17.27
2017-12-13T01:37:36.532Z,16.00
2017-12-13T01:40:03.268Z,17.90
2017-12-13T01:42:30.034Z,15.73
2017-12-13T01:44:56.796Z,17.40
2017-12-13T01:47:23.555Z,16.23
2017-12-13T01:49:51.067Z,18.13
2017-12-13T01:52:17.833Z,15.43
2017-12-13T01:54:44.598Z,17.73
2017-12-13T01:57:11.335Z,16.77
2017-12-13T01:59:38.834Z,16.03
2017-12-13T02:02:05.587Z,15.97
2017-12-13T02:04:32.416Z,18.13
2017-12-13T02:06:59.158Z,16.73
2017-12-13T02:09:25.900Z,17.87
2017-12-13T02:11:52.648Z,16.23
2017-12-13T02:14:19.403Z,20.40
2017-12-13T02:16:46.117Z,18.50
2017-12-13T02:19:12.874Z,19.50
2017-12-13T02:21:39.631Z,20.40
2017-12-13T02:24:07.120Z,19.97
2017-12-13T02:26:34.034Z,20.07
2017-12-13T02:29:01.542Z,21.70
2017-12-13T02:31:28.282Z,19.03
2017-12-13T02:33:55.025Z,21.70
2017-12-13T02:36:21.751Z,18.83
2017-12-13T02:38:48.608Z,19.77
2017-12-13T02:41:15.356Z,22.00
2017-12-13T02:43:42.251Z,19.17
2017-12-13T02:46:08.976Z,19.23
2017-12-13T02:48:35.695Z,18.13
2017-12-13T02:51:03.221Z,17.93
2017-12-13T02:53:29.957Z,20.00
2017-12-13T02:55:56.722Z,16.73
2017-12-13T02:58:23.445Z,15.77
2017-12-13T03:00:50.966Z,19.20
2017-12-13T03:03:17.694Z,22.07
2017-12-13T03:05:44.438Z,17.27
2017-12-13T03:08:11.196Z,19.07
2017-12-13T03:10:37.934Z,20.77
2017-12-13T03:13:04.691Z,20.03
2017-12-13T03:15:31.443Z,21.50
2017-12-13T03:17:58.195Z,23.63
2017-12-13T03:20:24.921Z,29.13
2017-12-13T03:22:51.659Z,24.80
2017-12-13T03:25:18.442Z,21.07
2017-12-13T03:27:45.281Z,19.73
2017-12-13T03:30:11.982Z,21.87
2017-12-13T03:32:38.744Z,20.43
2017-12-13T03:35:05.455Z,16.67
2017-12-13T03:37:32.966Z,21.73
2017-12-13T03:39:59.712Z,26.03
2017-12-13T03:42:26.511Z,26.10
2017-12-13T03:44:54.011Z,18.80
2017-12-13T03:47:20.766Z,21.57
2017-12-13T03:49:47.496Z,17.30
2017-12-13T03:52:14.254Z,22.53
2017-12-13T03:54:40.966Z,18.40
2017-12-13T03:57:07.698Z,17.47
2017-12-13T03:59:34.438Z,18.50
2017-12-13T04:02:01.196Z,19.00
2017-12-13T04:04:27.918Z,20.07
2017-12-13T04:06:54.639Z,18.50
2017-12-13T04:09:21.387Z,16.03
2017-12-13T04:11:48.117Z,16.50
2017-12-13T04:14:14.863Z,15.70
2017-12-13T04:16:41.599Z,18.77
2017-12-13T04:19:08.372Z,14.77
2017-12-13T04:21:35.122Z,15.80
2017-12-13T04:24:01.899Z,19.03
2017-12-13T04:26:29.419Z,15.93
2017-12-13T04:28:56.151Z,14.73
2017-12-13T04:31:22.908Z,13.57
2017-12-13T04:33:49.655Z,15.50
2017-12-13T04:36:16.401Z,12.83
2017-12-13T04:38:43.135Z,15.27
2017-12-13T04:41:09.888Z,13.67
2017-12-13T04:43:37.387Z,11.20
2017-12-13T04:46:04.148Z,18.17
2017-12-13T04:48:30.884Z,15.83
2017-12-13T04:50:57.679Z,13.80
2017-12-13T04:53:25.186Z,14.87
2017-12-13T04:55:51.972Z,13.93
2017-12-13T04:58:18.708Z,14.43
2017-12-13T05:00:46.214Z,13.83
2017-12-13T05:03:12.974Z,12.10
2017-12-13T05:05:39.700Z,13.07
2017-12-13T05:08:06.449Z,11.87
2017-12-13T05:10:33.173Z,12.10
2017-12-13T05:12:59.905Z,11.10
2017-12-13T05:15:26.701Z,13.30
2017-12-13T05:17:53.406Z,11.10
2017-12-13T05:20:20.906Z,11.93
2017-12-13T05:22:47.656Z,12.20
2017-12-13T05:25:14.393Z,14.40
2017-12-13T05:27:41.219Z,15.83
2017-12-13T05:30:07.931Z,11.73
2017-12-13T05:32:35.441Z,13.90
2017-12-13T05:35:02.190Z,12.27
2017-12-13T05:37:29.238Z,11.77
2017-12-13T05:39:55.886Z,13.17
2017-12-13T05:42:22.609Z,14.33
2017-12-13T05:44:49.353Z,11.23
2017-12-13T05:47:16.110Z,10.43
2017-12-13T05:49:42.855Z,11.13
2017-12-13T05:52:09.714Z,9.87
2017-12-13T05:54:37.398Z,12.30
2017-12-13T05:57:04.121Z,13.17
2017-12-13T05:59:31.639Z,11.83
2017-12-13T06:01:58.371Z,9.80
2017-12-13T06:04:25.112Z,10.67
2017-12-13T06:06:51.960Z,11.87
2017-12-13T06:09:18.703Z,10.97
2017-12-13T06:11:46.952Z,11.17
2017-12-13T06:14:13.707Z,12.97
2017-12-13T06:16:40.433Z,11.40
2017-12-13T06:19:07.165Z,10.17
2017-12-13T06:21:33.936Z,10.60
2017-12-13T06:24:00.668Z,12.13
2017-12-13T06:26:27.417Z,11.97
2017-12-13T06:28:55.794Z,11.47
2017-12-13T06:31:22.592Z,13.30
2017-12-13T06:33:49.321Z,11.97
2017-12-13T06:36:16.051Z,14.80
2017-12-13T06:38:42.802Z,15.70
2017-12-13T06:41:09.528Z,8.97
2017-12-13T06:43:36.470Z,12.17
2017-12-13T06:46:03.195Z,15.33
2017-12-13T06:48:30.710Z,13.13
2017-12-13T06:50:57.462Z,12.37
2017-12-13T06:53:24.193Z,10.70
2017-12-13T06:55:50.927Z,9.07
2017-12-13T06:58:17.678Z,18.03
2017-12-13T07:00:44.407Z,19.10
2017-12-13T07:03:11.147Z,11.23
2017-12-13T07:05:37.923Z,10.13
2017-12-13T07:08:05.617Z,9.03
2017-12-13T07:10:32.349Z,12.47
2017-12-13T07:12:59.103Z,9.70
2017-12-13T07:15:25.847Z,10.63
2017-12-13T07:17:52.609Z,8.47
2017-12-13T07:20:19.348Z,10.70
2017-12-13T07:22:46.235Z,12.10
2017-12-13T07:25:12.916Z,8.03
2017-12-13T07:27:39.663Z,9.67
2017-12-13T07:30:06.426Z,7.60
2017-12-13T07:32:33.164Z,12.03
2017-12-13T07:35:00.689Z,7.73
2017-12-13T07:37:27.408Z,5.13
2017-12-13T07:39:54.143Z,7.20
2017-12-13T07:42:20.872Z,9.50
2017-12-13T07:44:47.616Z,8.50
2017-12-13T07:47:14.388Z,7.67
2017-12-13T07:49:41.182Z,5.67
2017-12-13T07:52:07.911Z,7.93
2017-12-13T07:54:35.395Z,9.47
2017-12-13T07:57:02.130Z,5.40
2017-12-13T07:59:28.865Z,11.03
2017-12-13T08:01:55.610Z,7.80
2017-12-13T08:04:22.513Z,9.80
2017-12-13T08:06:49.267Z,13.83
2017-12-13T08:09:16.955Z,6.63
2017-12-13T08:11:43.711Z,9.17
2017-12-13T08:14:10.560Z,7.70
2017-12-13T08:16:37.298Z,9.00
2017-12-13T08:19:04.034Z,8.77
2017-12-13T08:21:30.784Z,7.90
2017-12-13T08:23:57.486Z,9.37
2017-12-13T08:26:24.229Z,8.97
2017-12-13T08:28:51.027Z,7.07
2017-12-13T08:31:17.796Z,6.33
2017-12-13T08:33:45.271Z,7.77
2017-12-13T08:36:12.012Z,11.73
2017-12-13T08:38:38.847Z,8.90
2017-12-13T08:41:05.619Z,15.93
2017-12-13T08:43:32.320Z,16.27
2017-12-13T08:46:00.702Z,14.90
2017-12-13T08:48:27.445Z,17.53
2017-12-13T08:50:54.274Z,18.80
2017-12-13T08:53:21.755Z,16.17
2017-12-13T08:55:48.486Z,16.17
2017-12-13T08:58:15.237Z,15.33
2017-12-13T09:00:41.970Z,12.30
2017-12-13T09:03:08.733Z,19.07
2017-12-13T09:05:37.036Z,15.97
2017-12-13T09:08:03.752Z,21.53
2017-12-13T09:10:30.503Z,13.63
2017-12-13T09:12:58.132Z,11.40
2017-12-13T09:15:25.018Z,15.10
2017-12-13T09:17:52.547Z,19.70
2017-12-13T09:20:19.296Z,16.57
2017-12-13T09:22:46.018Z,24.60
2017-12-13T09:25:12.764Z,18.77
2017-12-13T09:27:39.511Z,17.53
2017-12-13T09:30:06.264Z,15.77
2017-12-13T09:32:33.764Z,10.57
2017-12-13T09:35:00.508Z,9.53
2017-12-13T09:37:27.236Z,13.53
2017-12-13T09:39:53.978Z,10.27
2017-12-13T09:42:20.731Z,11.70
2017-12-13T09:44:47.570Z,13.50
2017-12-13T09:47:14.647Z,8.97
2017-12-13T09:49:42.163Z,13.10
2017-12-13T09:52:08.961Z,16.33
2017-12-13T09:54:35.673Z,12.27
2017-12-13T09:57:02.416Z,12.33
2017-12-13T09:59:29.170Z,13.27
2017-12-13T10:01:56.751Z,16.97
2017-12-13T10:04:23.456Z,13.43
2017-12-13T10:06:50.186Z,14.23
2017-12-13T10:09:17.022Z,15.03
2017-12-13T10:11:43.752Z,13.47
2017-12-13T10:14:10.510Z,14.17
2017-12-13T10:16:37.256Z,11.33
2017-12-13T10:19:04.024Z,13.40
2017-12-13T10:21:31.510Z,13.43
2017-12-13T10:23:58.249Z,14.13
2017-12-13T10:26:24.966Z,8.83
2017-12-13T10:28:51.707Z,10.80
2017-12-13T10:31:18.455Z,11.57
2017-12-13T10:33:45.193Z,10.87
2017-12-13T10:36:11.942Z,11.37
2017-12-13T10:38:38.679Z,14.83
2017-12-13T10:41:05.456Z,11.80
2017-12-13T10:43:32.148Z,9.63
2017-12-13T10:45:58.907Z,12.50
2017-12-13T10:48:25.626Z,12.57
2017-12-13T10:50:52.387Z,8.33
2017-12-13T10:53:19.276Z,6.33
2017-12-13T10:55:46.955Z,2.30
2017-12-13T10:58:13.695Z,2.77
2017-12-13T11:00:40.598Z,3.63
2017-12-13T11:03:07.346Z,1.63
2017-12-13T11:05:35.190Z,2.33
2017-12-13T11:08:01.931Z,1.53
2017-12-13T11:10:28.666Z,1.90
2017-12-13T11:12:55.397Z,3.60
2017-12-13T11:15:22.131Z,2.20
2017-12-13T11:17:48.985Z,1.80
2017-12-13T11:20:15.738Z,2.63
2017-12-13T11:22:42.478Z,1.20
2017-12-13T11:25:09.222Z,2.30
2017-12-13T11:27:36.032Z,2.40
2017-12-13T11:30:02.816Z,2.10
2017-12-13T11:32:30.343Z,1.97
2017-12-13T11:34:57.179Z,1.33
2017-12-13T11:37:23.935Z,1.47
2017-12-13T11:39:50.693Z,1.90
2017-12-13T11:42:17.440Z,2.53
2017-12-13T11:44:44.956Z,1.97
2017-12-13T11:47:11.712Z,3.33
2017-12-13T11:49:38.467Z,0.60
2017-12-13T11:52:05.204Z,1.10
2017-12-13T11:54:31.945Z,0.50
2017-12-13T11:56:58.714Z,1.40
2017-12-13T11:59:25.439Z,4.63
2017-12-13T12:01:52.225Z,3.67
2017-12-13T12:04:18.970Z,0.67
2017-12-13T12:06:45.743Z,0.60
2017-12-13T12:09:13.260Z,0.70
2017-12-13T12:11:40.017Z,0.97
2017-12-13T12:14:06.743Z,0.60
2017-12-13T12:16:33.498Z,0.77
2017-12-13T12:19:00.280Z,2.10
2017-12-13T12:21:27.748Z,0.63
2017-12-13T12:23:54.556Z,0.90
2017-12-13T12:26:22.128Z,0.60
2017-12-13T12:28:48.905Z,0.60
2017-12-13T12:31:15.660Z,0.90
2017-12-13T12:33:42.401Z,0.70
2017-12-13T12:36:09.138Z,1.17
2017-12-13T12:38:35.875Z,1.57
2017-12-13T12:41:02.642Z,0.70
2017-12-13T12:43:30.224Z,0.53
2017-12-13T12:45:58.073Z,0.90
2017-12-13T12:48:24.973Z,0.70
2017-12-13T12:50:53.855Z,1.00
2017-12-13T12:53:22.016Z,0.70
2017-12-13T12:55:48.920Z,1.07
2017-12-13T12:58:16.495Z,0.70
2017-12-13T13:00:43.247Z,1.53
2017-12-13T13:03:10.005Z,1.47
2017-12-13T13:05:36.737Z,0.73
2017-12-13T13:08:04.924Z,0.97
2017-12-13T13:10:31.940Z,1.10
2017-12-13T13:12:59.701Z,4.23
2017-12-13T13:15:26.632Z,6.07
2017-12-13T13:17:53.375Z,1.63
2017-12-13T13:20:20.159Z,2.20
2017-12-13T13:22:46.908Z,0.87
2017-12-13T13:25:13.636Z,1.83
2017-12-13T13:27:40.399Z,4.07
2017-12-13T13:30:07.146Z,3.07
2017-12-13T13:32:33.891Z,2.67
2017-12-13T13:35:01.391Z,1.07
2017-12-13T13:37:28.167Z,2.10
2017-12-13T13:39:54.920Z,1.37
2017-12-13T13:42:22.438Z,2.10
2017-12-13T13:44:49.164Z,1.47
2017-12-13T13:47:15.927Z,1.70
2017-12-13T13:49:42.665Z,1.20
2017-12-13T13:52:09.413Z,1.53
2017-12-13T13:54:36.157Z,1.07
2017-12-13T13:57:02.872Z,1.40
2017-12-13T13:59:29.629Z,2.37
2017-12-13T14:01:56.371Z,1.30
2017-12-13T14:04:23.131Z,2.20
2017-12-13T14:06:50.004Z,1.90
2017-12-13T14:09:16.726Z,2.90
2017-12-13T14:11:43.476Z,1.67
2017-12-13T14:14:10.226Z,1.30
2017-12-13T14:16:37.096Z,4.23
2017-12-13T14:19:03.843Z,4.03
2017-12-13T14:21:30.570Z,1.57
2017-12-13T14:23:57.325Z,2.60
2017-12-13T14:26:24.080Z,2.80
2017-12-13T14:28:50.816Z,1.60
2017-12-13T14:31:17.759Z,2.80
2017-12-13T14:33:44.501Z,3.03
2017-12-13T14:36:12.076Z,2.07
2017-12-13T14:38:39.579Z,1.30
2017-12-13T14:41:06.508Z,2.77
2017-12-13T14:43:33.255Z,1.73
2017-12-13T14:45:59.988Z,2.70
2017-12-13T14:48:26.721Z,3.93
2017-12-13T14:50:53.476Z,2.43
2017-12-13T14:53:20.209Z,1.83
2017-12-13T14:55:46.937Z,1.83
2017-12-13T14:58:13.688Z,2.03
2017-12-13T15:00:40.411Z,1.40
2017-12-13T15:03:07.155Z,2.33
2017-12-13T15:05:33.882Z,4.73
2017-12-13T15:08:00.608Z,2.93
2017-12-13T15:10:28.114Z,7.57
2017-12-13T15:12:54.836Z,2.20
2017-12-13T15:15:21.588Z,2.57
2017-12-13T15:17:48.319Z,1.53
2017-12-13T15:20:15.288Z,3.87
2017-12-13T15:22:42.004Z,2.97
2017-12-13T15:25:08.771Z,2.80
2017-12-13T15:27:35.511Z,4.13
2017-12-13T15:30:02.300Z,2.27
2017-12-13T15:32:29.024Z,2.00
2017-12-13T15:34:55.820Z,4.47
2017-12-13T15:37:22.547Z,1.73
2017-12-13T15:39:51.088Z,1.60
2017-12-13T15:42:18.793Z,1.30
2017-12-13T15:44:45.489Z,2.50
2017-12-13T15:47:12.976Z,1.33
2017-12-13T15:49:39.730Z,2.40
2017-12-13T15:52:06.489Z,1.67
2017-12-13T15:54:34.001Z,1.77
2017-12-13T15:57:00.863Z,1.20
2017-12-13T15:59:27.603Z,3.20
2017-12-13T16:01:54.490Z,1.70
2017-12-13T16:04:22.169Z,1.83
2017-12-13T16:06:49.021Z,1.53
2017-12-13T16:09:15.726Z,2.47
2017-12-13T16:11:43.230Z,1.60
2017-12-13T16:14:09.983Z,2.53
2017-12-13T16:16:36.713Z,1.93
2017-12-13T16:19:04.208Z,1.17
2017-12-13T16:21:30.944Z,2.13
2017-12-13T16:23:58.449Z,2.43
2017-12-13T16:26:25.212Z,2.80
2017-12-13T16:28:52.092Z,2.10
2017-12-13T16:31:19.662Z,2.07
2017-12-13T16:33:47.177Z,1.67
2017-12-13T16:36:13.933Z,1.00
2017-12-13T16:38:40.646Z,1.87
2017-12-13T16:41:07.374Z,1.97
2017-12-13T16:43:34.148Z,3.37
2017-12-13T16:46:00.862Z,2.60
2017-12-13T16:48:27.618Z,2.13
2017-12-13T16:50:55.211Z,2.30
2017-12-13T16:53:21.923Z,2.73
2017-12-13T16:55:48.760Z,2.90
2017-12-13T16:58:15.597Z,2.67
2017-12-13T17:00:42.348Z,2.80
2017-12-13T17:03:09.862Z,3.73
2017-12-13T17:05:36.612Z,2.23
2017-12-13T17:08:03.379Z,3.73
2017-12-13T17:10:30.123Z,2.63
2017-12-13T17:12:57.632Z,4.97
2017-12-13T17:15:24.365Z,3.07
2017-12-13T17:17:51.190Z,2.43
2017-12-13T17:20:17.942Z,2.47
2017-12-13T17:22:44.686Z,2.63
2017-12-13T17:25:11.772Z,2.33
2017-12-13T17:27:38.533Z,3.67
2017-12-13T17:30:06.032Z,2.10
2017-12-13T17:32:32.798Z,4.70
2017-12-13T17:34:59.576Z,6.87
2017-12-13T17:37:27.108Z,3.80
2017-12-13T17:39:55.371Z,5.87
2017-12-13T17:42:22.178Z,4.30
2017-12-13T17:44:48.900Z,4.90
2017-12-13T17:47:15.629Z,4.83
2017-12-13T17:49:43.148Z,3.20
2017-12-13T17:52:09.880Z,6.43
2017-12-13T17:54:36.668Z,5.20
2017-12-13T17:57:03.396Z,5.17
2017-12-13T17:59:30.900Z,9.13
2017-12-13T18:01:57.654Z,4.43
2017-12-13T18:04:24.421Z,4.97
2017-12-13T18:06:51.911Z,3.07
2017-12-13T18:09:18.667Z,7.53
2017-12-13T18:11:45.658Z,6.30
2017-12-13T18:14:12.386Z,8.40
2017-12-13T18:16:39.169Z,8.80
2017-12-13T18:19:06.675Z,11.27
2017-12-13T18:21:33.426Z,10.67
2017-12-13T18:24:00.168Z,11.10
2017-12-13T18:26:26.995Z,7.17
2017-12-13T18:28:55.316Z,6.23
2017-12-13T18:31:22.926Z,7.47
2017-12-13T18:33:49.685Z,9.00
2017-12-13T18:36:16.456Z,5.33
2017-12-13T18:38:43.988Z,7.10
2017-12-13T18:41:11.509Z,4.33
2017-12-13T18:43:38.287Z,4.17
2017-12-13T18:46:05.052Z,5.63
2017-12-13T18:48:31.817Z,7.07
2017-12-13T18:50:58.549Z,4.87
2017-12-13T18:53:25.310Z,5.43
2017-12-13T18:55:52.027Z,7.83
2017-12-13T18:58:18.883Z,8.87
2017-12-13T19:00:45.593Z,6.37
2017-12-13T19:03:12.337Z,6.57
2017-12-13T19:05:39.148Z,6.57
2017-12-13T19:08:05.840Z,6.00
2017-12-13T19:10:32.591Z,6.00
2017-12-13T19:12:59.372Z,7.13
2017-12-13T19:15:26.886Z,6.40
2017-12-13T19:17:53.637Z,9.00
2017-12-13T19:20:21.157Z,6.20
2017-12-13T19:22:47.983Z,6.30
2017-12-13T19:25:14.725Z,7.07
2017-12-13T19:27:41.475Z,5.47
2017-12-13T19:30:08.280Z,12.33
2017-12-13T19:32:35.796Z,9.07
2017-12-13T19:35:02.515Z,8.80
2017-12-13T19:37:29.593Z,7.83
2017-12-13T19:39:56.329Z,8.17
2017-12-13T19:42:23.088Z,11.20
2017-12-13T19:44:49.824Z,9.83
2017-12-13T19:47:16.567Z,10.10
2017-12-13T19:49:43.313Z,10.37
2017-12-13T19:52:10.821Z,6.83
2017-12-13T19:54:37.570Z,8.77
2017-12-13T19:57:04.345Z,8.60
2017-12-13T19:59:35.908Z,10.33
2017-12-13T20:02:02.612Z,8.37
2017-12-13T20:04:29.393Z,8.23
2017-12-13T20:06:56.123Z,8.33
2017-12-13T20:09:22.894Z,9.43
2017-12-13T20:11:49.649Z,8.47
2017-12-13T20:14:16.394Z,9.00
2017-12-13T20:16:43.296Z,6.57
2017-12-13T20:19:10.049Z,10.13
2017-12-13T20:21:36.816Z,5.43
2017-12-13T20:24:03.776Z,8.53
2017-12-13T20:26:30.507Z,5.70
2017-12-13T20:28:57.407Z,4.00
2017-12-13T20:31:24.155Z,8.43
2017-12-13T20:33:50.884Z,3.50
2017-12-13T20:36:17.658Z,4.73
2017-12-13T20:38:44.418Z,6.97
2017-12-13T20:41:11.116Z,4.27
2017-12-13T20:43:38.014Z,3.00
2017-12-13T20:46:05.541Z,4.83
2017-12-13T20:48:32.280Z,3.03
2017-12-13T20:50:59.037Z,2.40
2017-12-13T20:53:25.781Z,3.43
2017-12-13T20:55:54.048Z,1.90
2017-12-13T20:58:20.806Z,6.13
2017-12-13T21:00:48.299Z,5.83
2017-12-13T21:03:15.033Z,1.97
2017-12-13T21:05:41.808Z,2.30
2017-12-13T21:08:08.513Z,3.00
2017-12-13T21:10:35.275Z,3.90
2017-12-13T21:13:02.023Z,4.33
2017-12-13T21:15:28.926Z,2.80
2017-12-13T21:17:56.413Z,2.90
2017-12-13T21:20:23.163Z,1.47
2017-12-13T21:22:49.921Z,1.37
2017-12-13T21:25:16.684Z,0.80
2017-12-13T21:27:44.186Z,1.13
2017-12-13T21:30:10.923Z,2.67
2017-12-13T21:32:37.671Z,1.60
2017-12-13T21:35:04.423Z,0.90
2017-12-13T21:37:31.306Z,0.90
2017-12-13T21:39:58.816Z,0.70
2017-12-13T21:42:25.589Z,0.60
2017-12-13T21:44:53.083Z,0.93
2017-12-13T21:47:19.888Z,0.50
2017-12-13T21:49:46.674Z,0.63
2017-12-13T21:52:13.423Z,0.77
2017-12-13T21:54:40.171Z,1.00
2017-12-13T21:57:07.090Z,1.77
2017-12-13T21:59:33.832Z,1.10
2017-12-13T22:02:00.547Z,1.57
2017-12-13T22:04:27.295Z,1.33
2017-12-13T22:06:54.088Z,1.13
2017-12-13T22:09:20.832Z,2.00
2017-12-13T22:11:48.327Z,1.87
2017-12-13T22:14:15.099Z,1.50
2017-12-13T22:16:41.803Z,3.57
2017-12-13T22:19:08.586Z,3.30
2017-12-13T22:21:35.328Z,3.67
2017-12-13T22:24:02.094Z,4.30
2017-12-13T22:26:29.604Z,4.73
2017-12-13T22:28:56.412Z,11.13
2017-12-13T22:31:23.129Z,5.90
2017-12-13T22:33:50.663Z,4.50
2017-12-13T22:36:17.423Z,4.27
2017-12-13T22:38:44.935Z,4.93
2017-12-13T22:41:11.704Z,6.60
2017-12-13T22:43:38.556Z,8.57
2017-12-13T22:46:05.349Z,6.80
2017-12-13T22:48:32.061Z,5.90
2017-12-13T22:50:58.780Z,6.27
2017-12-13T22:53:26.288Z,5.37
2017-12-13T22:55:53.044Z,6.57
2017-12-13T22:58:19.792Z,4.63
2017-12-13T23:00:48.036Z,7.07
2017-12-13T23:03:14.784Z,8.17
2017-12-13T23:05:41.512Z,8.63
2017-12-13T23:08:08.263Z,5.33
2017-12-13T23:10:34.991Z,4.93
2017-12-13T23:13:01.719Z,4.80
2017-12-13T23:15:28.460Z,8.00
2017-12-13T23:17:55.196Z,6.67
2017-12-13T23:20:21.947Z,12.10
2017-12-13T23:22:48.675Z,11.43
2017-12-13T23:25:15.399Z,8.93
2017-12-13T23:27:42.128Z,14.47
2017-12-13T23:30:09.649Z,8.87
2017-12-13T23:32:36.383Z,10.13
2017-12-13T23:35:03.144Z,10.30
2017-12-13T23:37:30.651Z,11.57
2017-12-13T23:39:57.403Z,12.33
2017-12-13T23:42:24.145Z,12.63
2017-12-13T23:44:50.893Z,9.37
2017-12-13T23:47:17.666Z,9.40
2017-12-13T23:49:45.188Z,9.67
2017-12-13T23:52:11.927Z,12.40
2017-12-13T23:54:38.670Z,10.43
2017-12-13T23:57:06.188Z,12.27
2017-12-13T23:59:32.923Z,9.73
